sensor_id;sensor_type;location;lat;lon;timestamp;P1;durP1;ratioP1;P2;durP2;ratioP2
72284;SDS011;60220;53.552;10.092;2023-07-30T00:00:08;9.18;;;6.05;;
72284;SDS011;60220;53.552;10.092;2023-07-30T00:02:35;6.50;;;5.28;;
72284;SDS011;60220;53.552;10.092;2023-07-30T00:05:02;7.70;;;5.30;;
72284;SDS011;60220;53.552;10.092;2023-07-30T00:07:28;7.47;;;5.05;;
72284;SDS011;60220;53.552;10.092;2023-07-30T00:09:55;6.35;;;5.25;;
72284;SDS011;60220;53.552;10.092;2023-07-30T00:12:23;6.88;;;5.32;;
72284;SDS011;60220;53.552;10.092;2023-07-30T00:14:50;7.63;;;5.40;;
72284;SDS011;60220;53.552;10.092;2023-07-30T00:17:18;7.97;;;5.68;;
72284;SDS011;60220;53.552;10.092;2023-07-30T00:19:45;7.60;;;5.72;;
72284;SDS011;60220;53.552;10.092;2023-07-30T00:22:12;8.38;;;5.68;;
72284;SDS011;60220;53.552;10.092;2023-07-30T00:24:38;8.55;;;5.07;;
72284;SDS011;60220;53.552;10.092;2023-07-30T00:27:07;7.85;;;5.68;;
72284;SDS011;60220;53.552;10.092;2023-07-30T00:29:37;6.32;;;4.80;;
72284;SDS011;60220;53.552;10.092;2023-07-30T00:32:05;9.68;;;5.47;;
72284;SDS011;60220;53.552;10.092;2023-07-30T00:34:31;7.55;;;5.13;;
72284;SDS011;60220;53.552;10.092;2023-07-30T00:36:58;9.32;;;5.45;;
72284;SDS011;60220;53.552;10.092;2023-07-30T00:39:25;9.05;;;5.25;;
72284;SDS011;60220;53.552;10.092;2023-07-30T00:41:51;5.78;;;4.63;;
72284;SDS011;60220;53.552;10.092;2023-07-30T00:44:20;9.48;;;4.50;;
72284;SDS011;60220;53.552;10.092;2023-07-30T00:46:48;6.65;;;5.05;;
72284;SDS011;60220;53.552;10.092;2023-07-30T00:49:15;12.85;;;4.78;;
72284;SDS011;60220;53.552;10.092;2023-07-30T00:51:42;7.88;;;5.13;;
72284;SDS011;60220;53.552;10.092;2023-07-30T00:54:10;8.15;;;5.35;;
72284;SDS011;60220;53.552;10.092;2023-07-30T00:56:39;13.18;;;5.75;;
72284;SDS011;60220;53.552;10.092;2023-07-30T00:59:14;8.73;;;5.35;;
72284;SDS011;60220;53.552;10.092;2023-07-30T01:01:41;8.45;;;5.68;;
72284;SDS011;60220;53.552;10.092;2023-07-30T01:04:10;7.43;;;5.15;;
72284;SDS011;60220;53.552;10.092;2023-07-30T01:06:36;9.60;;;5.40;;
72284;SDS011;60220;53.552;10.092;2023-07-30T01:09:03;7.05;;;5.22;;
72284;SDS011;60220;53.552;10.092;2023-07-30T01:11:30;6.70;;;4.55;;
72284;SDS011;60220;53.552;10.092;2023-07-30T01:13:57;6.95;;;4.95;;
72284;SDS011;60220;53.552;10.092;2023-07-30T01:16:24;7.95;;;4.53;;
72284;SDS011;60220;53.552;10.092;2023-07-30T01:18:51;6.05;;;4.60;;
72284;SDS011;60220;53.552;10.092;2023-07-30T01:21:19;6.72;;;5.35;;
72284;SDS011;60220;53.552;10.092;2023-07-30T01:23:46;9.32;;;4.72;;
72284;SDS011;60220;53.552;10.092;2023-07-30T01:26:15;8.05;;;4.93;;
72284;SDS011;60220;53.552;10.092;2023-07-30T01:28:51;9.20;;;4.40;;
72284;SDS011;60220;53.552;10.092;2023-07-30T01:31:25;6.68;;;4.72;;
72284;SDS011;60220;53.552;10.092;2023-07-30T01:33:53;4.32;;;3.92;;
72284;SDS011;60220;53.552;10.092;2023-07-30T01:36:23;5.20;;;4.30;;
72284;SDS011;60220;53.552;10.092;2023-07-30T01:38:50;5.68;;;4.43;;
72284;SDS011;60220;53.552;10.092;2023-07-30T01:41:18;6.65;;;4.63;;
72284;SDS011;60220;53.552;10.092;2023-07-30T01:43:45;7.18;;;4.78;;
72284;SDS011;60220;53.552;10.092;2023-07-30T01:46:12;7.07;;;4.38;;
72284;SDS011;60220;53.552;10.092;2023-07-30T01:48:41;8.32;;;5.03;;
72284;SDS011;60220;53.552;10.092;2023-07-30T01:51:07;5.47;;;4.07;;
72284;SDS011;60220;53.552;10.092;2023-07-30T01:53:35;6.90;;;4.57;;
72284;SDS011;60220;53.552;10.092;2023-07-30T01:56:02;7.85;;;4.22;;
72284;SDS011;60220;53.552;10.092;2023-07-30T01:58:29;8.68;;;4.75;;
72284;SDS011;60220;53.552;10.092;2023-07-30T02:00:55;8.15;;;5.55;;
72284;SDS011;60220;53.552;10.092;2023-07-30T02:03:24;6.30;;;5.15;;
72284;SDS011;60220;53.552;10.092;2023-07-30T02:05:51;7.97;;;5.45;;
72284;SDS011;60220;53.552;10.092;2023-07-30T02:08:17;7.97;;;4.53;;
72284;SDS011;60220;53.552;10.092;2023-07-30T02:10:45;9.02;;;5.28;;
72284;SDS011;60220;53.552;10.092;2023-07-30T02:13:21;7.63;;;5.22;;
72284;SDS011;60220;53.552;10.092;2023-07-30T02:15:47;9.90;;;5.60;;
72284;SDS011;60220;53.552;10.092;2023-07-30T02:18:14;7.80;;;5.43;;
72284;SDS011;60220;53.552;10.092;2023-07-30T02:20:40;8.98;;;5.50;;
72284;SDS011;60220;53.552;10.092;2023-07-30T02:23:07;11.05;;;6.43;;
72284;SDS011;60220;53.552;10.092;2023-07-30T02:25:34;8.85;;;5.43;;
72284;SDS011;60220;53.552;10.092;2023-07-30T02:28:02;11.65;;;5.72;;
72284;SDS011;60220;53.552;10.092;2023-07-30T02:30:29;9.90;;;5.88;;
72284;SDS011;60220;53.552;10.092;2023-07-30T02:32:56;9.65;;;5.65;;
72284;SDS011;60220;53.552;10.092;2023-07-30T02:35:22;11.48;;;6.72;;
72284;SDS011;60220;53.552;10.092;2023-07-30T02:37:49;10.43;;;6.53;;
72284;SDS011;60220;53.552;10.092;2023-07-30T02:40:15;8.23;;;6.25;;
72284;SDS011;60220;53.552;10.092;2023-07-30T02:42:42;9.75;;;6.22;;
72284;SDS011;60220;53.552;10.092;2023-07-30T02:45:10;12.48;;;6.28;;
72284;SDS011;60220;53.552;10.092;2023-07-30T02:47:37;7.28;;;5.53;;
72284;SDS011;60220;53.552;10.092;2023-07-30T02:50:04;15.45;;;6.60;;
72284;SDS011;60220;53.552;10.092;2023-07-30T02:52:32;12.80;;;6.40;;
72284;SDS011;60220;53.552;10.092;2023-07-30T02:54:58;8.07;;;6.30;;
72284;SDS011;60220;53.552;10.092;2023-07-30T02:57:25;9.70;;;5.93;;
72284;SDS011;60220;53.552;10.092;2023-07-30T02:59:51;7.63;;;5.57;;
72284;SDS011;60220;53.552;10.092;2023-07-30T03:02:22;8.93;;;5.90;;
72284;SDS011;60220;53.552;10.092;2023-07-30T03:04:48;8.07;;;6.15;;
72284;SDS011;60220;53.552;10.092;2023-07-30T03:07:15;7.93;;;5.97;;
72284;SDS011;60220;53.552;10.092;2023-07-30T03:09:43;8.80;;;6.30;;
72284;SDS011;60220;53.552;10.092;2023-07-30T03:12:10;8.52;;;5.90;;
72284;SDS011;60220;53.552;10.092;2023-07-30T03:14:39;11.45;;;7.00;;
72284;SDS011;60220;53.552;10.092;2023-07-30T03:17:05;11.00;;;7.45;;
72284;SDS011;60220;53.552;10.092;2023-07-30T03:19:36;12.25;;;7.38;;
72284;SDS011;60220;53.552;10.092;2023-07-30T03:22:02;9.55;;;6.90;;
72284;SDS011;60220;53.552;10.092;2023-07-30T03:24:29;11.68;;;7.88;;
72284;SDS011;60220;53.552;10.092;2023-07-30T03:26:56;12.00;;;7.63;;
72284;SDS011;60220;53.552;10.092;2023-07-30T03:29:23;13.88;;;8.32;;
72284;SDS011;60220;53.552;10.092;2023-07-30T03:31:49;13.32;;;7.68;;
72284;SDS011;60220;53.552;10.092;2023-07-30T03:34:16;12.95;;;8.00;;
72284;SDS011;60220;53.552;10.092;2023-07-30T03:36:44;15.18;;;7.78;;
72284;SDS011;60220;53.552;10.092;2023-07-30T03:39:11;16.05;;;9.10;;
72284;SDS011;60220;53.552;10.092;2023-07-30T03:41:40;14.68;;;9.00;;
72284;SDS011;60220;53.552;10.092;2023-07-30T03:44:10;14.32;;;8.80;;
72284;SDS011;60220;53.552;10.092;2023-07-30T03:46:37;16.10;;;7.88;;
72284;SDS011;60220;53.552;10.092;2023-07-30T03:49:04;12.43;;;7.53;;
72284;SDS011;60220;53.552;10.092;2023-07-30T03:51:31;12.75;;;8.48;;
72284;SDS011;60220;53.552;10.092;2023-07-30T03:53:59;11.50;;;8.00;;
72284;SDS011;60220;53.552;10.092;2023-07-30T03:56:28;14.30;;;9.02;;
72284;SDS011;60220;53.552;10.092;2023-07-30T03:58:54;19.95;;;8.95;;
72284;SDS011;60220;53.552;10.092;2023-07-30T04:01:23;13.52;;;8.30;;
72284;SDS011;60220;53.552;10.092;2023-07-30T04:03:50;11.73;;;8.48;;
72284;SDS011;60220;53.552;10.092;2023-07-30T04:06:17;17.27;;;9.43;;
72284;SDS011;60220;53.552;10.092;2023-07-30T04:08:43;13.63;;;8.15;;
72284;SDS011;60220;53.552;10.092;2023-07-30T04:11:11;19.30;;;7.82;;
72284;SDS011;60220;53.552;10.092;2023-07-30T04:13:38;13.00;;;7.82;;
72284;SDS011;60220;53.552;10.092;2023-07-30T04:16:08;12.55;;;8.18;;
72284;SDS011;60220;53.552;10.092;2023-07-30T04:18:35;15.50;;;8.85;;
72284;SDS011;60220;53.552;10.092;2023-07-30T04:21:01;13.32;;;8.23;;
72284;SDS011;60220;53.552;10.092;2023-07-30T04:23:28;16.88;;;8.48;;
72284;SDS011;60220;53.552;10.092;2023-07-30T04:25:57;11.73;;;7.82;;
72284;SDS011;60220;53.552;10.092;2023-07-30T04:28:27;12.35;;;8.35;;
72284;SDS011;60220;53.552;10.092;2023-07-30T04:30:54;13.52;;;7.25;;
72284;SDS011;60220;53.552;10.092;2023-07-30T04:33:21;10.07;;;7.25;;
72284;SDS011;60220;53.552;10.092;2023-07-30T04:35:47;13.07;;;7.10;;
72284;SDS011;60220;53.552;10.092;2023-07-30T04:38:14;13.07;;;7.97;;
72284;SDS011;60220;53.552;10.092;2023-07-30T04:40:41;12.68;;;7.50;;
72284;SDS011;60220;53.552;10.092;2023-07-30T04:43:07;18.05;;;7.43;;
72284;SDS011;60220;53.552;10.092;2023-07-30T04:45:38;12.52;;;7.20;;
72284;SDS011;60220;53.552;10.092;2023-07-30T04:48:06;18.48;;;7.57;;
72284;SDS011;60220;53.552;10.092;2023-07-30T04:50:33;22.58;;;7.60;;
72284;SDS011;60220;53.552;10.092;2023-07-30T04:53:00;14.90;;;7.78;;
72284;SDS011;60220;53.552;10.092;2023-07-30T04:55:27;19.67;;;8.23;;
72284;SDS011;60220;53.552;10.092;2023-07-30T04:57:53;14.27;;;8.05;;
72284;SDS011;60220;53.552;10.092;2023-07-30T05:00:22;14.07;;;8.07;;
72284;SDS011;60220;53.552;10.092;2023-07-30T05:02:50;17.25;;;7.40;;
72284;SDS011;60220;53.552;10.092;2023-07-30T05:05:19;12.25;;;7.25;;
72284;SDS011;60220;53.552;10.092;2023-07-30T05:07:46;19.27;;;7.40;;
72284;SDS011;60220;53.552;10.092;2023-07-30T05:10:12;17.40;;;7.50;;
72284;SDS011;60220;53.552;10.092;2023-07-30T05:12:39;16.45;;;6.97;;
72284;SDS011;60220;53.552;10.092;2023-07-30T05:15:08;18.23;;;7.00;;
72284;SDS011;60220;53.552;10.092;2023-07-30T05:17:35;16.63;;;6.68;;
72284;SDS011;60220;53.552;10.092;2023-07-30T05:20:04;11.32;;;6.30;;
72284;SDS011;60220;53.552;10.092;2023-07-30T05:22:31;15.77;;;7.05;;
72284;SDS011;60220;53.552;10.092;2023-07-30T05:24:58;15.88;;;7.65;;
72284;SDS011;60220;53.552;10.092;2023-07-30T05:27:25;13.20;;;5.75;;
72284;SDS011;60220;53.552;10.092;2023-07-30T05:29:54;17.48;;;6.72;;
72284;SDS011;60220;53.552;10.092;2023-07-30T05:32:20;14.68;;;5.75;;
72284;SDS011;60220;53.552;10.092;2023-07-30T05:34:47;15.55;;;6.75;;
72284;SDS011;60220;53.552;10.092;2023-07-30T05:37:15;13.18;;;5.32;;
72284;SDS011;60220;53.552;10.092;2023-07-30T05:39:42;17.38;;;6.18;;
72284;SDS011;60220;53.552;10.092;2023-07-30T05:42:08;10.35;;;5.50;;
72284;SDS011;60220;53.552;10.092;2023-07-30T05:44:35;17.02;;;6.63;;
72284;SDS011;60220;53.552;10.092;2023-07-30T05:47:02;14.95;;;6.05;;
72284;SDS011;60220;53.552;10.092;2023-07-30T05:49:28;16.60;;;6.72;;
72284;SDS011;60220;53.552;10.092;2023-07-30T05:51:56;13.07;;;6.15;;
72284;SDS011;60220;53.552;10.092;2023-07-30T05:54:24;13.32;;;6.95;;
72284;SDS011;60220;53.552;10.092;2023-07-30T05:56:51;16.58;;;6.38;;
72284;SDS011;60220;53.552;10.092;2023-07-30T05:59:18;16.23;;;6.82;;
72284;SDS011;60220;53.552;10.092;2023-07-30T06:01:46;14.00;;;6.03;;
72284;SDS011;60220;53.552;10.092;2023-07-30T06:04:12;13.30;;;6.63;;
72284;SDS011;60220;53.552;10.092;2023-07-30T06:06:41;16.88;;;6.25;;
72284;SDS011;60220;53.552;10.092;2023-07-30T06:09:08;17.30;;;7.07;;
72284;SDS011;60220;53.552;10.092;2023-07-30T06:11:40;17.95;;;6.00;;
72284;SDS011;60220;53.552;10.092;2023-07-30T06:14:06;16.48;;;7.35;;
72284;SDS011;60220;53.552;10.092;2023-07-30T06:16:33;14.05;;;6.43;;
72284;SDS011;60220;53.552;10.092;2023-07-30T06:19:00;13.35;;;6.20;;
72284;SDS011;60220;53.552;10.092;2023-07-30T06:21:26;15.60;;;5.78;;
72284;SDS011;60220;53.552;10.092;2023-07-30T06:23:53;11.30;;;6.28;;
72284;SDS011;60220;53.552;10.092;2023-07-30T06:26:20;15.07;;;5.95;;
72284;SDS011;60220;53.552;10.092;2023-07-30T06:28:48;14.50;;;5.93;;
72284;SDS011;60220;53.552;10.092;2023-07-30T06:31:14;11.93;;;5.75;;
72284;SDS011;60220;53.552;10.092;2023-07-30T06:33:41;19.02;;;6.03;;
72284;SDS011;60220;53.552;10.092;2023-07-30T06:36:08;14.25;;;6.03;;
72284;SDS011;60220;53.552;10.092;2023-07-30T06:38:34;15.65;;;6.50;;
72284;SDS011;60220;53.552;10.092;2023-07-30T06:41:01;12.43;;;6.80;;
72284;SDS011;60220;53.552;10.092;2023-07-30T06:43:28;14.45;;;6.18;;
72284;SDS011;60220;53.552;10.092;2023-07-30T06:45:56;13.35;;;6.50;;
72284;SDS011;60220;53.552;10.092;2023-07-30T06:48:25;15.15;;;6.22;;
72284;SDS011;60220;53.552;10.092;2023-07-30T06:50:54;12.75;;;6.60;;
72284;SDS011;60220;53.552;10.092;2023-07-30T06:53:20;14.48;;;6.57;;
72284;SDS011;60220;53.552;10.092;2023-07-30T06:55:47;12.77;;;7.68;;
72284;SDS011;60220;53.552;10.092;2023-07-30T06:58:14;15.38;;;8.05;;
72284;SDS011;60220;53.552;10.092;2023-07-30T07:00:43;11.63;;;6.97;;
72284;SDS011;60220;53.552;10.092;2023-07-30T07:03:11;13.75;;;7.22;;
72284;SDS011;60220;53.552;10.092;2023-07-30T07:05:38;17.00;;;7.60;;
72284;SDS011;60220;53.552;10.092;2023-07-30T07:08:05;15.02;;;8.25;;
72284;SDS011;60220;53.552;10.092;2023-07-30T07:10:31;17.73;;;9.00;;
72284;SDS011;60220;53.552;10.092;2023-07-30T07:13:00;20.27;;;7.78;;
72284;SDS011;60220;53.552;10.092;2023-07-30T07:15:27;24.73;;;10.20;;
72284;SDS011;60220;53.552;10.092;2023-07-30T07:17:56;17.42;;;9.82;;
72284;SDS011;60220;53.552;10.092;2023-07-30T07:20:24;18.75;;;10.10;;
72284;SDS011;60220;53.552;10.092;2023-07-30T07:22:51;21.48;;;9.15;;
72284;SDS011;60220;53.552;10.092;2023-07-30T07:25:18;20.00;;;9.52;;
72284;SDS011;60220;53.552;10.092;2023-07-30T07:27:46;21.40;;;9.45;;
72284;SDS011;60220;53.552;10.092;2023-07-30T07:30:12;16.65;;;9.68;;
72284;SDS011;60220;53.552;10.092;2023-07-30T07:32:39;16.17;;;9.15;;
72284;SDS011;60220;53.552;10.092;2023-07-30T07:35:06;24.45;;;9.10;;
72284;SDS011;60220;53.552;10.092;2023-07-30T07:37:35;15.48;;;7.65;;
72284;SDS011;60220;53.552;10.092;2023-07-30T07:40:02;22.17;;;8.68;;
72284;SDS011;60220;53.552;10.092;2023-07-30T07:42:29;21.85;;;8.73;;
72284;SDS011;60220;53.552;10.092;2023-07-30T07:44:55;19.77;;;8.75;;
72284;SDS011;60220;53.552;10.092;2023-07-30T07:47:22;15.20;;;7.07;;
72284;SDS011;60220;53.552;10.092;2023-07-30T07:49:49;21.55;;;7.57;;
72284;SDS011;60220;53.552;10.092;2023-07-30T07:52:15;10.48;;;6.32;;
72284;SDS011;60220;53.552;10.092;2023-07-30T07:54:44;12.75;;;5.72;;
72284;SDS011;60220;53.552;10.092;2023-07-30T07:57:10;10.98;;;5.20;;
72284;SDS011;60220;53.552;10.092;2023-07-30T07:59:37;13.55;;;5.72;;
72284;SDS011;60220;53.552;10.092;2023-07-30T08:02:04;8.15;;;4.60;;
72284;SDS011;60220;53.552;10.092;2023-07-30T08:04:31;9.00;;;4.28;;
72284;SDS011;60220;53.552;10.092;2023-07-30T08:06:58;14.52;;;4.68;;
72284;SDS011;60220;53.552;10.092;2023-07-30T08:09:28;14.38;;;4.53;;
72284;SDS011;60220;53.552;10.092;2023-07-30T08:11:56;12.57;;;4.82;;
72284;SDS011;60220;53.552;10.092;2023-07-30T08:14:23;10.77;;;3.95;;
72284;SDS011;60220;53.552;10.092;2023-07-30T08:16:49;9.52;;;4.50;;
72284;SDS011;60220;53.552;10.092;2023-07-30T08:19:16;12.23;;;4.30;;
72284;SDS011;60220;53.552;10.092;2023-07-30T08:21:42;12.02;;;4.78;;
72284;SDS011;60220;53.552;10.092;2023-07-30T08:24:09;14.32;;;5.03;;
72284;SDS011;60220;53.552;10.092;2023-07-30T08:26:36;14.75;;;4.93;;
72284;SDS011;60220;53.552;10.092;2023-07-30T08:29:04;9.43;;;4.90;;
72284;SDS011;60220;53.552;10.092;2023-07-30T08:31:31;7.38;;;4.53;;
72284;SDS011;60220;53.552;10.092;2023-07-30T08:33:58;9.07;;;4.00;;
72284;SDS011;60220;53.552;10.092;2023-07-30T08:36:27;11.57;;;4.65;;
72284;SDS011;60220;53.552;10.092;2023-07-30T08:38:56;9.10;;;3.88;;
72284;SDS011;60220;53.552;10.092;2023-07-30T08:41:26;5.55;;;3.47;;
72284;SDS011;60220;53.552;10.092;2023-07-30T08:43:52;10.70;;;6.18;;
72284;SDS011;60220;53.552;10.092;2023-07-30T08:46:21;9.65;;;4.07;;
72284;SDS011;60220;53.552;10.092;2023-07-30T08:48:49;10.13;;;3.05;;
72284;SDS011;60220;53.552;10.092;2023-07-30T08:51:16;11.63;;;4.13;;
72284;SDS011;60220;53.552;10.092;2023-07-30T08:53:45;5.35;;;2.67;;
72284;SDS011;60220;53.552;10.092;2023-07-30T08:56:12;9.82;;;2.63;;
72284;SDS011;60220;53.552;10.092;2023-07-30T08:58:39;10.32;;;2.88;;
72284;SDS011;60220;53.552;10.092;2023-07-30T09:01:08;8.00;;;2.50;;
72284;SDS011;60220;53.552;10.092;2023-07-30T09:03:37;6.10;;;2.38;;
72284;SDS011;60220;53.552;10.092;2023-07-30T09:06:05;8.88;;;3.05;;
72284;SDS011;60220;53.552;10.092;2023-07-30T09:08:31;9.43;;;2.40;;
72284;SDS011;60220;53.552;10.092;2023-07-30T09:11:05;8.25;;;2.25;;
72284;SDS011;60220;53.552;10.092;2023-07-30T09:13:36;10.23;;;2.80;;
72284;SDS011;60220;53.552;10.092;2023-07-30T09:16:07;8.00;;;2.63;;
72284;SDS011;60220;53.552;10.092;2023-07-30T09:18:39;9.32;;;2.92;;
72284;SDS011;60220;53.552;10.092;2023-07-30T09:21:07;11.93;;;2.35;;
72284;SDS011;60220;53.552;10.092;2023-07-30T09:23:41;7.85;;;2.40;;
72284;SDS011;60220;53.552;10.092;2023-07-30T09:26:42;7.85;;;2.83;;
72284;SDS011;60220;53.552;10.092;2023-07-30T09:29:50;8.43;;;3.00;;
72284;SDS011;60220;53.552;10.092;2023-07-30T09:32:17;7.60;;;2.40;;
72284;SDS011;60220;53.552;10.092;2023-07-30T09:34:46;10.05;;;2.83;;
72284;SDS011;60220;53.552;10.092;2023-07-30T09:37:13;6.63;;;2.30;;
72284;SDS011;60220;53.552;10.092;2023-07-30T09:39:43;6.25;;;2.30;;
72284;SDS011;60220;53.552;10.092;2023-07-30T09:42:09;11.30;;;2.92;;
72284;SDS011;60220;53.552;10.092;2023-07-30T09:44:37;5.00;;;2.30;;
72284;SDS011;60220;53.552;10.092;2023-07-30T09:47:04;6.45;;;2.47;;
72284;SDS011;60220;53.552;10.092;2023-07-30T09:49:33;8.20;;;2.15;;
72284;SDS011;60220;53.552;10.092;2023-07-30T09:52:01;6.43;;;1.65;;
72284;SDS011;60220;53.552;10.092;2023-07-30T09:54:29;14.75;;;2.38;;
72284;SDS011;60220;53.552;10.092;2023-07-30T09:56:57;4.80;;;1.88;;
72284;SDS011;60220;53.552;10.092;2023-07-30T09:59:26;11.63;;;2.38;;
72284;SDS011;60220;53.552;10.092;2023-07-30T10:01:55;7.22;;;2.13;;
72284;SDS011;60220;53.552;10.092;2023-07-30T10:04:25;66.95;;;33.40;;
72284;SDS011;60220;53.552;10.092;2023-07-30T10:06:55;5.03;;;2.08;;
72284;SDS011;60220;53.552;10.092;2023-07-30T10:09:29;8.40;;;2.22;;
72284;SDS011;60220;53.552;10.092;2023-07-30T10:12:00;3.85;;;2.42;;
72284;SDS011;60220;53.552;10.092;2023-07-30T10:14:29;7.47;;;2.80;;
72284;SDS011;60220;53.552;10.092;2023-07-30T10:16:59;4.82;;;1.73;;
72284;SDS011;60220;53.552;10.092;2023-07-30T10:19:26;8.25;;;2.00;;
72284;SDS011;60220;53.552;10.092;2023-07-30T10:22:02;8.00;;;2.50;;
72284;SDS011;60220;53.552;10.092;2023-07-30T10:24:56;7.13;;;2.20;;
72284;SDS011;60220;53.552;10.092;2023-07-30T10:27:24;7.88;;;2.15;;
72284;SDS011;60220;53.552;10.092;2023-07-30T10:32:40;7.45;;;2.45;;
72284;SDS011;60220;53.552;10.092;2023-07-30T10:35:07;9.52;;;2.20;;
72284;SDS011;60220;53.552;10.092;2023-07-30T10:37:44;5.57;;;1.80;;
72284;SDS011;60220;53.552;10.092;2023-07-30T10:40:19;5.95;;;1.65;;
72284;SDS011;60220;53.552;10.092;2023-07-30T10:42:46;7.90;;;1.70;;
72284;SDS011;60220;53.552;10.092;2023-07-30T10:45:14;5.55;;;2.20;;
72284;SDS011;60220;53.552;10.092;2023-07-30T10:47:41;11.02;;;3.63;;
72284;SDS011;60220;53.552;10.092;2023-07-30T10:50:08;6.50;;;2.25;;
72284;SDS011;60220;53.552;10.092;2023-07-30T10:52:38;5.35;;;2.05;;
72284;SDS011;60220;53.552;10.092;2023-07-30T10:55:05;9.40;;;2.65;;
72284;SDS011;60220;53.552;10.092;2023-07-30T10:57:33;6.72;;;1.90;;
72284;SDS011;60220;53.552;10.092;2023-07-30T11:00:00;11.65;;;3.15;;
72284;SDS011;60220;53.552;10.092;2023-07-30T11:02:27;2.95;;;1.73;;
72284;SDS011;60220;53.552;10.092;2023-07-30T11:04:54;6.50;;;1.58;;
72284;SDS011;60220;53.552;10.092;2023-07-30T11:07:21;3.65;;;1.70;;
72284;SDS011;60220;53.552;10.092;2023-07-30T11:09:58;4.03;;;1.70;;
72284;SDS011;60220;53.552;10.092;2023-07-30T11:12:28;5.85;;;2.53;;
72284;SDS011;60220;53.552;10.092;2023-07-30T11:15:03;7.03;;;2.05;;
72284;SDS011;60220;53.552;10.092;2023-07-30T11:17:31;5.88;;;1.63;;
72284;SDS011;60220;53.552;10.092;2023-07-30T11:20:00;5.32;;;2.15;;
72284;SDS011;60220;53.552;10.092;2023-07-30T11:22:30;2.72;;;1.58;;
72284;SDS011;60220;53.552;10.092;2023-07-30T11:24:57;8.43;;;1.70;;
72284;SDS011;60220;53.552;10.092;2023-07-30T11:27:28;6.65;;;2.08;;
72284;SDS011;60220;53.552;10.092;2023-07-30T11:29:56;4.13;;;1.90;;
72284;SDS011;60220;53.552;10.092;2023-07-30T11:32:24;4.03;;;1.80;;
72284;SDS011;60220;53.552;10.092;2023-07-30T11:34:55;5.28;;;1.25;;
72284;SDS011;60220;53.552;10.092;2023-07-30T11:37:21;8.63;;;3.13;;
72284;SDS011;60220;53.552;10.092;2023-07-30T11:39:49;4.50;;;1.33;;
72284;SDS011;60220;53.552;10.092;2023-07-30T11:42:17;4.50;;;1.40;;
72284;SDS011;60220;53.552;10.092;2023-07-30T11:44:44;4.47;;;1.27;;
72284;SDS011;60220;53.552;10.092;2023-07-30T11:47:11;3.28;;;1.30;;
72284;SDS011;60220;53.552;10.092;2023-07-30T11:49:38;4.90;;;1.63;;
72284;SDS011;60220;53.552;10.092;2023-07-30T11:52:05;10.13;;;4.20;;
72284;SDS011;60220;53.552;10.092;2023-07-30T11:54:33;4.15;;;1.65;;
72284;SDS011;60220;53.552;10.092;2023-07-30T11:57:00;7.82;;;1.75;;
72284;SDS011;60220;53.552;10.092;2023-07-30T11:59:26;5.28;;;2.05;;
72284;SDS011;60220;53.552;10.092;2023-07-30T12:01:53;6.53;;;1.70;;
72284;SDS011;60220;53.552;10.092;2023-07-30T12:04:20;4.13;;;1.48;;
72284;SDS011;60220;53.552;10.092;2023-07-30T12:06:48;4.90;;;1.45;;
72284;SDS011;60220;53.552;10.092;2023-07-30T12:09:17;5.05;;;1.83;;
72284;SDS011;60220;53.552;10.092;2023-07-30T12:11:47;7.38;;;1.77;;
72284;SDS011;60220;53.552;10.092;2023-07-30T12:14:17;3.95;;;0.88;;
72284;SDS011;60220;53.552;10.092;2023-07-30T12:16:45;4.10;;;1.13;;
72284;SDS011;60220;53.552;10.092;2023-07-30T12:19:14;5.53;;;1.38;;
72284;SDS011;60220;53.552;10.092;2023-07-30T12:21:41;3.47;;;1.10;;
72284;SDS011;60220;53.552;10.092;2023-07-30T12:24:09;6.15;;;1.40;;
72284;SDS011;60220;53.552;10.092;2023-07-30T12:26:35;4.13;;;1.20;;
72284;SDS011;60220;53.552;10.092;2023-07-30T12:29:04;5.28;;;1.27;;
72284;SDS011;60220;53.552;10.092;2023-07-30T12:31:31;5.53;;;1.20;;
72284;SDS011;60220;53.552;10.092;2023-07-30T12:33:58;4.25;;;1.23;;
72284;SDS011;60220;53.552;10.092;2023-07-30T12:36:24;4.45;;;1.77;;
72284;SDS011;60220;53.552;10.092;2023-07-30T12:38:51;3.65;;;1.38;;
72284;SDS011;60220;53.552;10.092;2023-07-30T12:41:22;5.68;;;1.20;;
72284;SDS011;60220;53.552;10.092;2023-07-30T12:43:51;7.20;;;1.10;;
72284;SDS011;60220;53.552;10.092;2023-07-30T12:46:19;4.70;;;1.08;;
72284;SDS011;60220;53.552;10.092;2023-07-30T12:48:45;4.70;;;1.30;;
72284;SDS011;60220;53.552;10.092;2023-07-30T12:51:14;5.55;;;1.60;;
72284;SDS011;60220;53.552;10.092;2023-07-30T12:53:41;4.55;;;1.67;;
72284;SDS011;60220;53.552;10.092;2023-07-30T12:56:08;5.85;;;1.25;;
72284;SDS011;60220;53.552;10.092;2023-07-30T12:58:36;4.65;;;1.30;;
72284;SDS011;60220;53.552;10.092;2023-07-30T13:01:02;8.60;;;1.35;;
72284;SDS011;60220;53.552;10.092;2023-07-30T13:03:31;4.85;;;1.27;;
72284;SDS011;60220;53.552;10.092;2023-07-30T13:06:00;3.35;;;1.35;;
72284;SDS011;60220;53.552;10.092;2023-07-30T13:08:27;4.72;;;0.90;;
72284;SDS011;60220;53.552;10.092;2023-07-30T13:10:53;5.30;;;1.95;;
72284;SDS011;60220;53.552;10.092;2023-07-30T13:13:20;3.97;;;1.20;;
72284;SDS011;60220;53.552;10.092;2023-07-30T13:15:49;4.97;;;1.52;;
72284;SDS011;60220;53.552;10.092;2023-07-30T13:18:18;4.63;;;1.40;;
72284;SDS011;60220;53.552;10.092;2023-07-30T13:20:45;3.90;;;1.38;;
72284;SDS011;60220;53.552;10.092;2023-07-30T13:23:14;4.82;;;1.20;;
72284;SDS011;60220;53.552;10.092;2023-07-30T13:25:41;2.08;;;1.15;;
72284;SDS011;60220;53.552;10.092;2023-07-30T13:28:08;3.58;;;1.67;;
72284;SDS011;60220;53.552;10.092;2023-07-30T13:30:34;4.90;;;1.83;;
72284;SDS011;60220;53.552;10.092;2023-07-30T13:33:05;5.70;;;1.30;;
72284;SDS011;60220;53.552;10.092;2023-07-30T13:35:32;4.38;;;1.23;;
72284;SDS011;60220;53.552;10.092;2023-07-30T13:37:58;1.52;;;1.08;;
72284;SDS011;60220;53.552;10.092;2023-07-30T13:40:25;2.10;;;1.23;;
72284;SDS011;60220;53.552;10.092;2023-07-30T13:42:54;3.13;;;1.20;;
72284;SDS011;60220;53.552;10.092;2023-07-30T13:45:21;2.83;;;1.48;;
72284;SDS011;60220;53.552;10.092;2023-07-30T13:47:48;3.38;;;1.30;;
72284;SDS011;60220;53.552;10.092;2023-07-30T13:50:16;4.80;;;1.38;;
72284;SDS011;60220;53.552;10.092;2023-07-30T13:52:43;4.40;;;1.13;;
72284;SDS011;60220;53.552;10.092;2023-07-30T13:55:10;5.47;;;1.90;;
72284;SDS011;60220;53.552;10.092;2023-07-30T13:57:36;3.42;;;1.27;;
72284;SDS011;60220;53.552;10.092;2023-07-30T14:00:06;5.60;;;1.52;;
72284;SDS011;60220;53.552;10.092;2023-07-30T14:02:33;2.30;;;1.40;;
72284;SDS011;60220;53.552;10.092;2023-07-30T14:05:03;2.50;;;1.80;;
72284;SDS011;60220;53.552;10.092;2023-07-30T14:07:31;4.82;;;2.38;;
72284;SDS011;60220;53.552;10.092;2023-07-30T14:09:57;3.50;;;1.88;;
72284;SDS011;60220;53.552;10.092;2023-07-30T14:12:24;4.00;;;1.33;;
72284;SDS011;60220;53.552;10.092;2023-07-30T14:14:53;2.50;;;1.80;;
72284;SDS011;60220;53.552;10.092;2023-07-30T14:17:19;6.38;;;1.80;;
72284;SDS011;60220;53.552;10.092;2023-07-30T14:19:46;5.88;;;1.48;;
72284;SDS011;60220;53.552;10.092;2023-07-30T14:22:13;5.95;;;1.85;;
72284;SDS011;60220;53.552;10.092;2023-07-30T14:24:41;4.30;;;1.70;;
72284;SDS011;60220;53.552;10.092;2023-07-30T14:27:08;6.03;;;2.05;;
72284;SDS011;60220;53.552;10.092;2023-07-30T14:29:35;6.53;;;2.05;;
72284;SDS011;60220;53.552;10.092;2023-07-30T14:32:02;4.18;;;1.77;;
72284;SDS011;60220;53.552;10.092;2023-07-30T14:34:29;4.78;;;1.52;;